sensor_id;sensor_type;location;lat;lon;timestamp;temperature;humidity
4985;DHT22;2509;49.902;8.600;2023-04-02T00:02:54;9.50;99.90
4985;DHT22;2509;49.902;8.600;2023-04-02T00:05:56;9.40;99.90
4985;DHT22;2509;49.902;8.600;2023-04-02T00:08:59;9.40;99.90
4985;DHT22;2509;49.902;8.600;2023-04-02T00:12:17;9.40;99.90
4985;DHT22;2509;49.902;8.600;2023-04-02T00:15:20;9.40;99.90
4985;DHT22;2509;49.902;8.600;2023-04-02T00:18:22;9.30;99.90
4985;DHT22;2509;49.902;8.600;2023-04-02T00:21:26;9.30;99.90
4985;DHT22;2509;49.902;8.600;2023-04-02T00:24:29;9.30;99.90
4985;DHT22;2509;49.902;8.600;2023-04-02T00:27:35;9.20;99.90
4985;DHT22;2509;49.902;8.600;2023-04-02T00:30:37;9.20;99.90
4985;DHT22;2509;49.902;8.600;2023-04-02T00:33:38;9.20;99.90
4985;DHT22;2509;49.902;8.600;2023-04-02T00:36:43;9.30;99.90
4985;DHT22;2509;49.902;8.600;2023-04-02T00:39:46;9.30;99.90
4985;DHT22;2509;49.902;8.600;2023-04-02T00:42:50;9.30;99.90
4985;DHT22;2509;49.902;8.600;2023-04-02T00:45:55;9.30;99.90
4985;DHT22;2509;49.902;8.600;2023-04-02T00:49:00;9.30;99.90
4985;DHT22;2509;49.902;8.600;2023-04-02T00:52:05;9.30;99.90
4985;DHT22;2509;49.902;8.600;2023-04-02T00:55:13;9.30;99.90
4985;DHT22;2509;49.902;8.600;2023-04-02T00:58:21;9.30;99.90
4985;DHT22;2509;49.902;8.600;2023-04-02T01:01:29;9.30;99.90
4985;DHT22;2509;49.902;8.600;2023-04-02T01:04:35;9.30;99.90
4985;DHT22;2509;49.902;8.600;2023-04-02T01:07:46;9.20;99.90
4985;DHT22;2509;49.902;8.600;2023-04-02T01:10:58;9.20;99.90
4985;DHT22;2509;49.902;8.600;2023-04-02T01:14:10;9.20;99.90
4985;DHT22;2509;49.902;8.600;2023-04-02T01:17:24;9.20;99.90
4985;DHT22;2509;49.902;8.600;2023-04-02T01:20:57;9.20;99.90
4985;DHT22;2509;49.902;8.600;2023-04-02T01:24:04;9.20;99.90
4985;DHT22;2509;49.902;8.600;2023-04-02T01:27:14;9.20;99.90
4985;DHT22;2509;49.902;8.600;2023-04-02T01:30:18;9.20;99.90
4985;DHT22;2509;49.902;8.600;2023-04-02T01:33:22;9.30;99.90
4985;DHT22;2509;49.902;8.600;2023-04-02T01:36:28;9.30;99.90
4985;DHT22;2509;49.902;8.600;2023-04-02T01:39:41;9.20;99.90
4985;DHT22;2509;49.902;8.600;2023-04-02T01:42:51;9.20;99.90
4985;DHT22;2509;49.902;8.600;2023-04-02T01:45:58;9.20;99.90
4985;DHT22;2509;49.902;8.600;2023-04-02T01:49:03;9.20;99.90
4985;DHT22;2509;49.902;8.600;2023-04-02T01:52:12;9.20;99.90
4985;DHT22;2509;49.902;8.600;2023-04-02T01:55:24;9.20;99.90
4985;DHT22;2509;49.902;8.600;2023-04-02T01:58:28;9.20;99.90
4985;DHT22;2509;49.902;8.600;2023-04-02T02:01:35;9.20;99.90
4985;DHT22;2509;49.902;8.600;2023-04-02T02:04:39;9.20;99.90
4985;DHT22;2509;49.902;8.600;2023-04-02T02:07:42;9.20;99.90
4985;DHT22;2509;49.902;8.600;2023-04-02T02:10:43;9.20;99.90
4985;DHT22;2509;49.902;8.600;2023-04-02T02:13:46;9.10;99.90
4985;DHT22;2509;49.902;8.600;2023-04-02T02:16:52;9.20;99.90
4985;DHT22;2509;49.902;8.600;2023-04-02T02:19:57;9.10;99.90
4985;DHT22;2509;49.902;8.600;2023-04-02T02:23:01;9.10;99.90
4985;DHT22;2509;49.902;8.600;2023-04-02T02:26:05;9.10;99.90
4985;DHT22;2509;49.902;8.600;2023-04-02T02:29:10;9.10;99.90
4985;DHT22;2509;49.902;8.600;2023-04-02T02:32:17;9.10;99.90
4985;DHT22;2509;49.902;8.600;2023-04-02T02:35:24;9.10;99.90
4985;DHT22;2509;49.902;8.600;2023-04-02T02:38:41;9.10;99.90
4985;DHT22;2509;49.902;8.600;2023-04-02T02:41:45;9.10;99.90
4985;DHT22;2509;49.902;8.600;2023-04-02T02:44:51;9.20;99.90
4985;DHT22;2509;49.902;8.600;2023-04-02T02:47:56;9.20;99.90
4985;DHT22;2509;49.902;8.600;2023-04-02T02:50:59;9.20;99.90
4985;DHT22;2509;49.902;8.600;2023-04-02T02:54:03;9.20;99.90
4985;DHT22;2509;49.902;8.600;2023-04-02T02:57:08;9.20;99.90
4985;DHT22;2509;49.902;8.600;2023-04-02T03:00:11;9.10;99.90
4985;DHT22;2509;49.902;8.600;2023-04-02T03:03:19;9.10;99.90
4985;DHT22;2509;49.902;8.600;2023-04-02T03:06:22;9.10;99.90
4985;DHT22;2509;49.902;8.600;2023-04-02T03:09:32;9.10;99.90
4985;DHT22;2509;49.902;8.600;2023-04-02T03:12:42;9.10;99.90
4985;DHT22;2509;49.902;8.600;2023-04-02T03:15:50;9.10;99.90
4985;DHT22;2509;49.902;8.600;2023-04-02T03:18:59;9.10;99.90
4985;DHT22;2509;49.902;8.600;2023-04-02T03:22:07;9.10;99.90
4985;DHT22;2509;49.902;8.600;2023-04-02T03:25:21;9.10;99.90
4985;DHT22;2509;49.902;8.600;2023-04-02T03:28:26;9.00;99.90
4985;DHT22;2509;49.902;8.600;2023-04-02T03:31:32;9.10;99.90
4985;DHT22;2509;49.902;8.600;2023-04-02T03:34:40;9.10;99.90
4985;DHT22;2509;49.902;8.600;2023-04-02T03:37:47;9.10;99.90
4985;DHT22;2509;49.902;8.600;2023-04-02T03:40:58;9.00;99.90
4985;DHT22;2509;49.902;8.600;2023-04-02T03:44:05;9.10;99.90
4985;DHT22;2509;49.902;8.600;2023-04-02T03:47:15;9.10;99.90
4985;DHT22;2509;49.902;8.600;2023-04-02T03:50:22;9.00;99.90
4985;DHT22;2509;49.902;8.600;2023-04-02T03:53:27;9.00;99.90
4985;DHT22;2509;49.902;8.600;2023-04-02T03:56:34;9.10;99.90
4985;DHT22;2509;49.902;8.600;2023-04-02T03:59:43;9.00;99.90
4985;DHT22;2509;49.902;8.600;2023-04-02T04:02:50;9.00;99.90
4985;DHT22;2509;49.902;8.600;2023-04-02T04:05:57;9.00;99.90
4985;DHT22;2509;49.902;8.600;2023-04-02T04:09:06;9.00;99.90
4985;DHT22;2509;49.902;8.600;2023-04-02T04:12:15;9.00;99.90
4985;DHT22;2509;49.902;8.600;2023-04-02T04:15:25;9.00;99.90
4985;DHT22;2509;49.902;8.600;2023-04-02T04:18:31;9.00;99.90
4985;DHT22;2509;49.902;8.600;2023-04-02T04:21:38;9.00;99.90
4985;DHT22;2509;49.902;8.600;2023-04-02T04:24:44;9.00;99.90
4985;DHT22;2509;49.902;8.600;2023-04-02T04:28:02;9.00;99.90
4985;DHT22;2509;49.902;8.600;2023-04-02T04:31:14;9.10;99.90
4985;DHT22;2509;49.902;8.600;2023-04-02T04:34:24;9.00;99.90
4985;DHT22;2509;49.902;8.600;2023-04-02T04:37:33;9.00;99.90
4985;DHT22;2509;49.902;8.600;2023-04-02T04:40:42;9.00;99.90
4985;DHT22;2509;49.902;8.600;2023-04-02T04:43:51;9.00;99.90
4985;DHT22;2509;49.902;8.600;2023-04-02T04:46:57;8.90;99.90
4985;DHT22;2509;49.902;8.600;2023-04-02T04:50:05;8.90;99.90
4985;DHT22;2509;49.902;8.600;2023-04-02T04:53:15;8.90;99.90
4985;DHT22;2509;49.902;8.600;2023-04-02T04:56:21;9.00;99.90
4985;DHT22;2509;49.902;8.600;2023-04-02T04:59:27;9.00;99.90
4985;DHT22;2509;49.902;8.600;2023-04-02T05:02:34;9.00;99.90
4985;DHT22;2509;49.902;8.600;2023-04-02T05:05:40;9.00;99.90
4985;DHT22;2509;49.902;8.600;2023-04-02T05:08:46;8.90;99.90
4985;DHT22;2509;49.902;8.600;2023-04-02T05:11:53;8.90;99.90
4985;DHT22;2509;49.902;8.600;2023-04-02T05:14:58;8.90;99.90
4985;DHT22;2509;49.902;8.600;2023-04-02T05:18:14;8.90;99.90
4985;DHT22;2509;49.902;8.600;2023-04-02T05:21:22;8.90;99.90
4985;DHT22;2509;49.902;8.600;2023-04-02T05:24:41;8.90;99.90
4985;DHT22;2509;49.902;8.600;2023-04-02T05:27:47;8.90;99.90
4985;DHT22;2509;49.902;8.600;2023-04-02T05:30:55;9.00;99.90
4985;DHT22;2509;49.902;8.600;2023-04-02T05:34:01;9.00;99.90
4985;DHT22;2509;49.902;8.600;2023-04-02T05:37:03;9.00;99.90
4985;DHT22;2509;49.902;8.600;2023-04-02T05:40:13;9.00;99.90
4985;DHT22;2509;49.902;8.600;2023-04-02T05:43:17;9.00;99.90
4985;DHT22;2509;49.902;8.600;2023-04-02T05:46:25;9.00;99.90
4985;DHT22;2509;49.902;8.600;2023-04-02T05:49:33;9.00;99.90
4985;DHT22;2509;49.902;8.600;2023-04-02T05:52:40;9.10;99.90
4985;DHT22;2509;49.902;8.600;2023-04-02T05:55:51;9.10;99.90
4985;DHT22;2509;49.902;8.600;2023-04-02T05:58:59;9.10;99.90
4985;DHT22;2509;49.902;8.600;2023-04-02T06:02:04;9.10;99.90
4985;DHT22;2509;49.902;8.600;2023-04-02T06:05:12;9.10;99.90
4985;DHT22;2509;49.902;8.600;2023-04-02T06:08:19;9.20;99.90
4985;DHT22;2509;49.902;8.600;2023-04-02T06:11:27;9.20;99.90
4985;DHT22;2509;49.902;8.600;2023-04-02T06:14:31;9.30;99.90
4985;DHT22;2509;49.902;8.600;2023-04-02T06:17:44;9.30;99.90
4985;DHT22;2509;49.902;8.600;2023-04-02T06:20:47;9.30;99.90
4985;DHT22;2509;49.902;8.600;2023-04-02T06:23:52;9.40;99.90
4985;DHT22;2509;49.902;8.600;2023-04-02T06:27:00;9.40;99.90
4985;DHT22;2509;49.902;8.600;2023-04-02T06:30:05;9.50;99.90
4985;DHT22;2509;49.902;8.600;2023-04-02T06:33:12;9.50;99.90
4985;DHT22;2509;49.902;8.600;2023-04-02T06:36:15;9.50;99.90
4985;DHT22;2509;49.902;8.600;2023-04-02T06:39:18;9.60;99.90
4985;DHT22;2509;49.902;8.600;2023-04-02T06:42:25;9.70;99.90
4985;DHT22;2509;49.902;8.600;2023-04-02T06:45:30;9.70;99.90
4985;DHT22;2509;49.902;8.600;2023-04-02T06:48:35;9.70;99.90
4985;DHT22;2509;49.902;8.600;2023-04-02T06:51:39;9.70;99.90
4985;DHT22;2509;49.902;8.600;2023-04-02T06:54:41;9.80;99.90
4985;DHT22;2509;49.902;8.600;2023-04-02T06:57:44;9.80;99.90
4985;DHT22;2509;49.902;8.600;2023-04-02T07:00:47;9.80;99.90
4985;DHT22;2509;49.902;8.600;2023-04-02T07:03:50;9.80;99.90
4985;DHT22;2509;49.902;8.600;2023-04-02T07:06:52;9.90;99.90
4985;DHT22;2509;49.902;8.600;2023-04-02T07:09:54;9.90;99.90
4985;DHT22;2509;49.902;8.600;2023-04-02T07:12:58;9.90;99.90
4985;DHT22;2509;49.902;8.600;2023-04-02T07:16:01;9.90;99.90
4985;DHT22;2509;49.902;8.600;2023-04-02T07:19:03;10.00;99.90
4985;DHT22;2509;49.902;8.600;2023-04-02T07:22:05;10.00;99.90
4985;DHT22;2509;49.902;8.600;2023-04-02T07:25:07;10.10;99.90
4985;DHT22;2509;49.902;8.600;2023-04-02T07:28:11;10.10;99.90
4985;DHT22;2509;49.902;8.600;2023-04-02T07:31:15;10.20;99.90
4985;DHT22;2509;49.902;8.600;2023-04-02T07:34:17;10.20;99.90
4985;DHT22;2509;49.902;8.600;2023-04-02T07:37:19;10.20;99.90
4985;DHT22;2509;49.902;8.600;2023-04-02T07:40:21;10.30;99.90
4985;DHT22;2509;49.902;8.600;2023-04-02T07:43:25;10.30;99.90
4985;DHT22;2509;49.902;8.600;2023-04-02T07:46:26;10.40;99.90
4985;DHT22;2509;49.902;8.600;2023-04-02T07:49:28;10.20;99.90
4985;DHT22;2509;49.902;8.600;2023-04-02T07:52:30;9.90;99.90
4985;DHT22;2509;49.902;8.600;2023-04-02T07:55:32;9.70;99.90
4985;DHT22;2509;49.902;8.600;2023-04-02T07:58:35;9.50;99.90
4985;DHT22;2509;49.902;8.600;2023-04-02T08:01:37;9.40;99.90
4985;DHT22;2509;49.902;8.600;2023-04-02T08:04:38;9.30;99.90
4985;DHT22;2509;49.902;8.600;2023-04-02T08:07:40;9.10;99.90
4985;DHT22;2509;49.902;8.600;2023-04-02T08:10:42;9.10;99.90
4985;DHT22;2509;49.902;8.600;2023-04-02T08:13:45;9.10;99.90
4985;DHT22;2509;49.902;8.600;2023-04-02T08:16:49;9.00;99.90
4985;DHT22;2509;49.902;8.600;2023-04-02T08:19:51;8.90;99.90
4985;DHT22;2509;49.902;8.600;2023-04-02T08:22:55;8.80;99.90
4985;DHT22;2509;49.902;8.600;2023-04-02T08:25:57;8.80;99.90
4985;DHT22;2509;49.902;8.600;2023-04-02T08:29:00;8.70;99.90
4985;DHT22;2509;49.902;8.600;2023-04-02T08:32:02;8.70;99.90
4985;DHT22;2509;49.902;8.600;2023-04-02T08:35:05;8.70;99.90
4985;DHT22;2509;49.902;8.600;2023-04-02T08:38:07;8.60;99.90
4985;DHT22;2509;49.902;8.600;2023-04-02T08:41:18;8.60;99.90
4985;DHT22;2509;49.902;8.600;2023-04-02T08:44:36;8.60;99.90
4985;DHT22;2509;49.902;8.600;2023-04-02T08:47:40;8.60;99.90
4985;DHT22;2509;49.902;8.600;2023-04-02T08:50:44;8.50;99.90
4985;DHT22;2509;49.902;8.600;2023-04-02T08:53:46;8.50;99.90
4985;DHT22;2509;49.902;8.600;2023-04-02T08:56:51;8.50;99.90
4985;DHT22;2509;49.902;8.600;2023-04-02T08:59:58;8.40;99.90
4985;DHT22;2509;49.902;8.600;2023-04-02T09:03:06;8.40;99.90
4985;DHT22;2509;49.902;8.600;2023-04-02T09:06:13;8.40;99.90
4985;DHT22;2509;49.902;8.600;2023-04-02T09:09:17;8.50;99.90
4985;DHT22;2509;49.902;8.600;2023-04-02T09:12:23;8.50;99.90
4985;DHT22;2509;49.902;8.600;2023-04-02T09:15:31;8.50;99.90
4985;DHT22;2509;49.902;8.600;2023-04-02T09:18:35;8.40;99.90
4985;DHT22;2509;49.902;8.600;2023-04-02T09:21:41;8.40;99.90
4985;DHT22;2509;49.902;8.600;2023-04-02T09:24:44;8.40;99.90
4985;DHT22;2509;49.902;8.600;2023-04-02T09:27:47;8.60;99.90
4985;DHT22;2509;49.902;8.600;2023-04-02T09:31:00;8.60;99.90
4985;DHT22;2509;49.902;8.600;2023-04-02T09:34:26;8.60;99.90
4985;DHT22;2509;49.902;8.600;2023-04-02T09:37:29;8.60;99.90
4985;DHT22;2509;49.902;8.600;2023-04-02T09:40:32;8.70;99.90
4985;DHT22;2509;49.902;8.600;2023-04-02T09:43:37;8.80;99.90
4985;DHT22;2509;49.902;8.600;2023-04-02T09:46:48;8.80;99.90
4985;DHT22;2509;49.902;8.600;2023-04-02T09:49:50;8.80;99.90
4985;DHT22;2509;49.902;8.600;2023-04-02T09:52:53;8.80;99.90
4985;DHT22;2509;49.902;8.600;2023-04-02T09:56:12;8.70;99.90
4985;DHT22;2509;49.902;8.600;2023-04-02T09:59:16;8.70;99.90
4985;DHT22;2509;49.902;8.600;2023-04-02T10:02:27;8.60;99.90
4985;DHT22;2509;49.902;8.600;2023-04-02T10:05:30;8.50;99.90
4985;DHT22;2509;49.902;8.600;2023-04-02T10:08:33;8.60;99.90
4985;DHT22;2509;49.902;8.600;2023-04-02T10:11:35;8.50;99.90
4985;DHT22;2509;49.902;8.600;2023-04-02T10:14:39;8.40;99.90
4985;DHT22;2509;49.902;8.600;2023-04-02T10:17:44;8.50;99.90
4985;DHT22;2509;49.902;8.600;2023-04-02T10:20:52;8.40;99.90
4985;DHT22;2509;49.902;8.600;2023-04-02T10:23:56;8.40;99.90
4985;DHT22;2509;49.902;8.600;2023-04-02T10:27:13;8.50;99.90
4985;DHT22;2509;49.902;8.600;2023-04-02T10:30:19;8.40;99.90
4985;DHT22;2509;49.902;8.600;2023-04-02T10:33:30;8.40;99.90
4985;DHT22;2509;49.902;8.600;2023-04-02T10:36:42;8.50;99.90
4985;DHT22;2509;49.902;8.600;2023-04-02T10:39:49;8.50;99.90
4985;DHT22;2509;49.902;8.600;2023-04-02T10:43:13;8.70;99.90
4985;DHT22;2509;49.902;8.600;2023-04-02T10:46:25;8.70;99.90
4985;DHT22;2509;49.902;8.600;2023-04-02T10:49:37;8.80;99.90
4985;DHT22;2509;49.902;8.600;2023-04-02T10:52:45;9.10;99.90
4985;DHT22;2509;49.902;8.600;2023-04-02T10:55:56;9.30;99.90
4985;DHT22;2509;49.902;8.600;2023-04-02T10:59:04;9.50;99.90
4985;DHT22;2509;49.902;8.600;2023-04-02T11:02:23;9.60;99.90
4985;DHT22;2509;49.902;8.600;2023-04-02T11:05:33;9.60;99.90
4985;DHT22;2509;49.902;8.600;2023-04-02T11:08:40;9.50;99.90
4985;DHT22;2509;49.902;8.600;2023-04-02T11:11:44;9.50;99.90
4985;DHT22;2509;49.902;8.600;2023-04-02T11:14:47;9.60;99.90
4985;DHT22;2509;49.902;8.600;2023-04-02T11:17:50;9.70;99.90
4985;DHT22;2509;49.902;8.600;2023-04-02T11:20:58;9.60;99.90
4985;DHT22;2509;49.902;8.600;2023-04-02T11:24:01;9.50;99.90
4985;DHT22;2509;49.902;8.600;2023-04-02T11:27:16;9.40;99.90
4985;DHT22;2509;49.902;8.600;2023-04-02T11:30:21;9.40;99.90
4985;DHT22;2509;49.902;8.600;2023-04-02T11:33:37;9.30;99.90
4985;DHT22;2509;49.902;8.600;2023-04-02T11:37:02;9.30;99.90
4985;DHT22;2509;49.902;8.600;2023-04-02T11:43:59;9.30;99.90
4985;DHT22;2509;49.902;8.600;2023-04-02T11:47:15;9.40;99.90
4985;DHT22;2509;49.902;8.600;2023-04-02T11:50:28;9.50;99.90
4985;DHT22;2509;49.902;8.600;2023-04-02T11:53:33;9.50;99.90
4985;DHT22;2509;49.902;8.600;2023-04-02T11:56:39;9.50;99.90
4985;DHT22;2509;49.902;8.600;2023-04-02T11:59:47;9.50;99.90
4985;DHT22;2509;49.902;8.600;2023-04-02T12:03:03;9.50;99.90
4985;DHT22;2509;49.902;8.600;2023-04-02T12:09:24;9.30;99.90
4985;DHT22;2509;49.902;8.600;2023-04-02T12:12:32;9.30;99.90
4985;DHT22;2509;49.902;8.600;2023-04-02T12:15:42;9.20;99.90
4985;DHT22;2509;49.902;8.600;2023-04-02T12:18:46;9.10;99.90
4985;DHT22;2509;49.902;8.600;2023-04-02T12:21:51;9.10;99.90
4985;DHT22;2509;49.902;8.600;2023-04-02T12:24:57;9.10;99.90
4985;DHT22;2509;49.902;8.600;2023-04-02T12:28:03;9.10;99.90
4985;DHT22;2509;49.902;8.600;2023-04-02T12:31:12;9.10;99.90
4985;DHT22;2509;49.902;8.600;2023-04-02T12:34:15;9.00;99.90
4985;DHT22;2509;49.902;8.600;2023-04-02T12:37:23;9.10;99.90
4985;DHT22;2509;49.902;8.600;2023-04-02T12:40:27;9.10;99.90
4985;DHT22;2509;49.902;8.600;2023-04-02T12:43:30;8.90;99.90
4985;DHT22;2509;49.902;8.600;2023-04-02T12:46:33;8.80;99.90
4985;DHT22;2509;49.902;8.600;2023-04-02T12:49:37;8.80;99.90
4985;DHT22;2509;49.902;8.600;2023-04-02T12:52:43;8.70;99.90
4985;DHT22;2509;49.902;8.600;2023-04-02T12:55:48;8.70;99.90
4985;DHT22;2509;49.902;8.600;2023-04-02T12:58:54;8.70;99.90
4985;DHT22;2509;49.902;8.600;2023-04-02T13:01:57;8.70;99.90
4985;DHT22;2509;49.902;8.600;2023-04-02T13:05:00;8.50;99.90
4985;DHT22;2509;49.902;8.600;2023-04-02T13:08:03;8.40;99.90
4985;DHT22;2509;49.902;8.600;2023-04-02T13:11:07;8.40;99.90
4985;DHT22;2509;49.902;8.600;2023-04-02T13:14:17;8.40;99.90
4985;DHT22;2509;49.902;8.600;2023-04-02T13:17:40;8.40;99.90
4985;DHT22;2509;49.902;8.600;2023-04-02T13:20:42;8.30;99.90
4985;DHT22;2509;49.902;8.600;2023-04-02T13:23:55;8.30;99.90
4985;DHT22;2509;49.902;8.600;2023-04-02T13:27:00;8.20;99.90
4985;DHT22;2509;49.902;8.600;2023-04-02T13:30:07;8.30;99.90
4985;DHT22;2509;49.902;8.600;2023-04-02T13:33:09;8.40;99.90
4985;DHT22;2509;49.902;8.600;2023-04-02T13:36:12;8.30;99.90
4985;DHT22;2509;49.902;8.600;2023-04-02T13:39:14;8.30;99.90
4985;DHT22;2509;49.902;8.600;2023-04-02T13:42:17;8.40;99.90
4985;DHT22;2509;49.902;8.600;2023-04-02T13:45:23;8.40;99.90
4985;DHT22;2509;49.902;8.600;2023-04-02T13:48:25;8.20;99.90
4985;DHT22;2509;49.902;8.600;2023-04-02T13:51:33;8.20;99.90
4985;DHT22;2509;49.902;8.600;2023-04-02T13:54:42;8.10;99.90
4985;DHT22;2509;49.902;8.600;2023-04-02T13:57:45;8.00;99.90
4985;DHT22;2509;49.902;8.600;2023-04-02T14:00:48;8.10;99.90
4985;DHT22;2509;49.902;8.600;2023-04-02T14:03:50;8.00;99.90
4985;DHT22;2509;49.902;8.600;2023-04-02T14:10:24;7.90;99.90
4985;DHT22;2509;49.902;8.600;2023-04-02T14:13:44;7.90;99.90
4985;DHT22;2509;49.902;8.600;2023-04-02T14:16:58;8.00;99.90
4985;DHT22;2509;49.902;8.600;2023-04-02T14:20:18;7.90;99.90
4985;DHT22;2509;49.902;8.600;2023-04-02T14:26:56;7.90;99.90
4985;DHT22;2509;49.902;8.600;2023-04-02T14:30:11;7.90;99.90
4985;DHT22;2509;49.902;8.600;2023-04-02T14:33:22;7.80;99.90
4985;DHT22;2509;49.902;8.600;2023-04-02T14:36:36;7.70;99.90
4985;DHT22;2509;49.902;8.600;2023-04-02T14:39:44;7.80;99.90
4985;DHT22;2509;49.902;8.600;2023-04-02T14:42:54;7.80;99.90
4985;DHT22;2509;49.902;8.600;2023-04-02T14:46:01;7.70;99.90
4985;DHT22;2509;49.902;8.600;2023-04-02T14:49:20;7.80;99.90
4985;DHT22;2509;49.902;8.600;2023-04-02T14:52:26;7.70;99.90
4985;DHT22;2509;49.902;8.600;2023-04-02T14:55:33;7.70;99.90
4985;DHT22;2509;49.902;8.600;2023-04-02T14:58:40;7.60;99.90
4985;DHT22;2509;49.902;8.600;2023-04-02T15:01:48;7.70;99.90
4985;DHT22;2509;49.902;8.600;2023-04-02T15:04:55;7.60;99.90
4985;DHT22;2509;49.902;8.600;2023-04-02T15:08:02;7.70;99.90
4985;DHT22;2509;49.902;8.600;2023-04-02T15:11:07;7.70;99.90
4985;DHT22;2509;49.902;8.600;2023-04-02T15:14:14;7.70;99.90
4985;DHT22;2509;49.902;8.600;2023-04-02T15:17:19;7.80;99.90
4985;DHT22;2509;49.902;8.600;2023-04-02T15:20:21;7.70;99.90
4985;DHT22;2509;49.902;8.600;2023-04-02T15:23:33;7.60;99.90
4985;DHT22;2509;49.902;8.600;2023-04-02T15:26:46;7.50;99.90
4985;DHT22;2509;49.902;8.600;2023-04-02T15:29:54;7.50;99.90
4985;DHT22;2509;49.902;8.600;2023-04-02T15:33:23;7.50;99.90
4985;DHT22;2509;49.902;8.600;2023-04-02T15:36:43;7.40;99.90
4985;DHT22;2509;49.902;8.600;2023-04-02T15:39:58;7.30;99.90
4985;DHT22;2509;49.902;8.600;2023-04-02T15:43:08;7.30;99.90
4985;DHT22;2509;49.902;8.600;2023-04-02T15:46:20;7.20;99.90
4985;DHT22;2509;49.902;8.600;2023-04-02T15:49:35;7.10;99.90
4985;DHT22;2509;49.902;8.600;2023-04-02T15:52:46;7.10;99.90
4985;DHT22;2509;49.902;8.600;2023-04-02T15:55:55;7.00;99.90
4985;DHT22;2509;49.902;8.600;2023-04-02T15:59:17;7.00;99.90
4985;DHT22;2509;49.902;8.600;2023-04-02T16:06:17;7.10;99.90
4985;DHT22;2509;49.902;8.600;2023-04-02T16:09:25;7.00;99.90
4985;DHT22;2509;49.902;8.600;2023-04-02T16:12:30;6.90;99.90
4985;DHT22;2509;49.902;8.600;2023-04-02T16:15:35;6.90;99.90
4985;DHT22;2509;49.902;8.600;2023-04-02T16:18:44;6.90;99.90
4985;DHT22;2509;49.902;8.600;2023-04-02T16:21:55;7.00;99.90
4985;DHT22;2509;49.902;8.600;2023-04-02T16:25:00;7.00;99.90
4985;DHT22;2509;49.902;8.600;2023-04-02T16:28:11;6.90;99.90
4985;DHT22;2509;49.902;8.600;2023-04-02T16:31:19;7.00;99.90
4985;DHT22;2509;49.902;8.600;2023-04-02T16:34:36;6.90;99.90
4985;DHT22;2509;49.902;8.600;2023-04-02T16:37:46;7.00;99.90
4985;DHT22;2509;49.902;8.600;2023-04-02T16:40:54;6.90;99.90
4985;DHT22;2509;49.902;8.600;2023-04-02T16:44:06;6.80;99.90
4985;DHT22;2509;49.902;8.600;2023-04-02T16:47:22;6.80;99.90
4985;DHT22;2509;49.902;8.600;2023-04-02T16:50:35;6.80;99.90
4985;DHT22;2509;49.902;8.600;2023-04-02T16:53:46;6.70;99.90
4985;DHT22;2509;49.902;8.600;2023-04-02T16:57:05;6.80;99.90
4985;DHT22;2509;49.902;8.600;2023-04-02T17:00:18;6.80;99.90
4985;DHT22;2509;49.902;8.600;2023-04-02T17:03:43;6.70;99.90
4985;DHT22;2509;49.902;8.600;2023-04-02T17:06:53;6.70;99.90
4985;DHT22;2509;49.902;8.600;2023-04-02T17:10:07;6.60;99.90
4985;DHT22;2509;49.902;8.600;2023-04-02T17:13:18;6.50;99.90
4985;DHT22;2509;49.902;8.600;2023-04-02T17:16:27;6.50;99.90
4985;DHT22;2509;49.902;8.600;2023-04-02T17:19:32;6.50;99.90
4985;DHT22;2509;49.902;8.600;2023-04-02T17:22:35;6.50;99.90
4985;DHT22;2509;49.902;8.600;2023-04-02T17:25:44;6.50;99.90
4985;DHT22;2509;49.902;8.600;2023-04-02T17:28:48;6.50;99.90
4985;DHT22;2509;49.902;8.600;2023-04-02T17:31:51;6.40;99.90
4985;DHT22;2509;49.902;8.600;2023-04-02T17:34:54;6.40;99.90
4985;DHT22;2509;49.902;8.600;2023-04-02T17:38:02;6.40;99.90
4985;DHT22;2509;49.902;8.600;2023-04-02T17:41:12;6.40;99.90
4985;DHT22;2509;49.902;8.600;2023-04-02T17:44:37;6.40;99.90
4985;DHT22;2509;49.902;8.600;2023-04-02T17:47:47;6.40;99.90
4985;DHT22;2509;49.902;8.600;2023-04-02T17:50:57;6.40;99.90
4985;DHT22;2509;49.902;8.600;2023-04-02T17:54:11;6.50;99.90
4985;DHT22;2509;49.902;8.600;2023-04-02T17:57:29;6.40;99.90
4985;DHT22;2509;49.902;8.600;2023-04-02T18:00:40;6.40;99.90
4985;DHT22;2509;49.902;8.600;2023-04-02T18:03:50;6.30;99.90
4985;DHT22;2509;49.902;8.600;2023-04-02T18:07:09;6.30;99.90
4985;DHT22;2509;49.902;8.600;2023-04-02T18:10:20;6.30;99.90
4985;DHT22;2509;49.902;8.600;2023-04-02T18:13:32;6.30;99.90
4985;DHT22;2509;49.902;8.600;2023-04-02T18:16:41;6.30;99.90
4985;DHT22;2509;49.902;8.600;2023-04-02T18:19:53;6.30;99.90
4985;DHT22;2509;49.902;8.600;2023-04-02T18:23:03;6.30;99.90
4985;DHT22;2509;49.902;8.600;2023-04-02T18:26:11;6.20;99.90
4985;DHT22;2509;49.902;8.600;2023-04-02T18:29:22;6.20;99.90
4985;DHT22;2509;49.902;8.600;2023-04-02T18:32:41;6.10;99.90
4985;DHT22;2509;49.902;8.600;2023-04-02T18:35:52;6.10;99.90
4985;DHT22;2509;49.902;8.600;2023-04-02T18:39:01;6.10;99.90
4985;DHT22;2509;49.902;8.600;2023-04-02T18:42:15;6.10;99.90
4985;DHT22;2509;49.902;8.600;2023-04-02T18:45:26;6.10;99.90
4985;DHT22;2509;49.902;8.600;2023-04-02T18:48:38;6.00;99.90
4985;DHT22;2509;49.902;8.600;2023-04-02T18:51:42;6.10;99.90
4985;DHT22;2509;49.902;8.600;2023-04-02T18:54:47;6.00;99.90
4985;DHT22;2509;49.902;8.600;2023-04-02T18:57:54;6.00;99.90
4985;DHT22;2509;49.902;8.600;2023-04-02T19:00:59;5.90;99.90
4985;DHT22;2509;49.902;8.600;2023-04-02T19:04:05;5.90;99.90
4985;DHT22;2509;49.902;8.600;2023-04-02T19:07:12;5.90;99.90
4985;DHT22;2509;49.902;8.600;2023-04-02T19:10:24;5.90;99.90
4985;DHT22;2509;49.902;8.600;2023-04-02T19:13:27;6.00;99.90
4985;DHT22;2509;49.902;8.600;2023-04-02T19:23:36;6.00;99.90
4985;DHT22;2509;49.902;8.600;2023-04-02T19:26:45;5.90;99.90
4985;DHT22;2509;49.902;8.600;2023-04-02T19:30:02;6.00;99.90
4985;DHT22;2509;49.902;8.600;2023-04-02T19:33:18;6.00;99.90
4985;DHT22;2509;49.902;8.600;2023-04-02T19:36:35;6.00;99.90
4985;DHT22;2509;49.902;8.600;2023-04-02T19:39:55;6.00;99.90
4985;DHT22;2509;49.902;8.600;2023-04-02T19:43:00;6.00;99.90
4985;DHT22;2509;49.902;8.600;2023-04-02T19:46:02;6.00;99.90
4985;DHT22;2509;49.902;8.600;2023-04-02T19:49:07;6.00;99.90
4985;DHT22;2509;49.902;8.600;2023-04-02T19:52:11;6.00;99.90
4985;DHT22;2509;49.902;8.600;2023-04-02T19:55:12;6.10;99.90
4985;DHT22;2509;49.902;8.600;2023-04-02T19:58:20;6.00;99.90
4985;DHT22;2509;49.902;8.600;2023-04-02T20:01:23;5.90;99.90
4985;DHT22;2509;49.902;8.600;2023-04-02T20:04:26;6.00;99.90
4985;DHT22;2509;49.902;8.600;2023-04-02T20:07:29;6.00;99.90
4985;DHT22;2509;49.902;8.600;2023-04-02T20:10:31;6.00;99.90
4985;DHT22;2509;49.902;8.600;2023-04-02T20:13:33;6.00;99.90
4985;DHT22;2509;49.902;8.600;2023-04-02T20:16:35;6.10;99.90
4985;DHT22;2509;49.902;8.600;2023-04-02T20:19:39;6.00;99.90
4985;DHT22;2509;49.902;8.600;2023-04-02T20:22:41;6.00;99.90
4985;DHT22;2509;49.902;8.600;2023-04-02T20:25:44;6.00;99.90
4985;DHT22;2509;49.902;8.600;2023-04-02T20:28:46;6.00;99.90
4985;DHT22;2509;49.902;8.600;2023-04-02T20:31:48;6.00;99.90
4985;DHT22;2509;49.902;8.600;2023-04-02T20:34:51;6.00;99.90
4985;DHT22;2509;49.902;8.600;2023-04-02T20:37:53;5.90;99.90
4985;DHT22;2509;49.902;8.600;2023-04-02T20:40:56;6.00;99.90
4985;DHT22;2509;49.902;8.600;2023-04-02T20:43:57;6.00;99.90
4985;DHT22;2509;49.902;8.600;2023-04-02T20:46:59;6.00;99.90
4985;DHT22;2509;49.902;8.600;2023-04-02T20:50:03;6.00;99.90
4985;DHT22;2509;49.902;8.600;2023-04-02T20:53:05;6.00;99.90
4985;DHT22;2509;49.902;8.600;2023-04-02T20:56:08;6.00;99.90
4985;DHT22;2509;49.902;8.600;2023-04-02T20:59:10;6.00;99.90
4985;DHT22;2509;49.902;8.600;2023-04-02T21:02:12;6.00;99.90
4985;DHT22;2509;49.902;8.600;2023-04-02T21:05:15;6.10;99.90
4985;DHT22;2509;49.902;8.600;2023-04-02T21:08:17;6.10;99.90